Time,TemperatureF,DewpointF,PressureIn,WindDirection,WindDirectionDegrees,WindSpeedMPH,WindSpeedGustMPH,Humidity,HourlyPrecipIn,Conditions,Clouds,dailyrainin,SoftwareType,DateUTC
2013-03-27 00:02:00,40.0,32.0,-100.00,NW,310,4.0,7.0,71,-99.99,,,-99.99,,2013-03-27 04:02:00,
2013-03-27 00:12:00,40.0,33.0,-100.00,WNW,290,7.0,7.0,73,-99.99,,,-99.99,,2013-03-27 04:12:00,
2013-03-27 00:22:00,40.0,33.0,-100.00,WNW,290,7.0,7.0,73,-99.99,,,-99.99,,2013-03-27 04:22:00,
2013-03-27 00:32:00,40.0,33.0,-100.00,WNW,290,7.0,7.0,73,-99.99,,,-99.99,,2013-03-27 04:32:00,
2013-03-27 00:52:00,40.0,33.0,-100.00,West,280,7.0,7.0,73,-99.99,,,-99.99,,2013-03-27 04:52:00,
2013-03-27 01:01:00,40.0,33.0,-100.00,West,280,7.0,7.0,73,-99.99,,,-99.99,,2013-03-27 05:01:00,
2013-03-27 01:12:00,40.0,33.0,-100.00,West,280,7.0,7.0,74,-99.99,,,-99.99,,2013-03-27 05:12:00,
2013-03-27 01:22:00,40.0,33.0,-100.00,West,280,7.0,7.0,74,-99.99,,,-99.99,,2013-03-27 05:22:00,
2013-03-27 01:42:00,40.0,31.0,-100.00,West,280,7.0,7.0,72,-99.99,,,-99.99,,2013-03-27 05:42:00,
2013-03-27 01:52:00,40.0,31.0,-100.00,West,280,7.0,7.0,72,-99.99,,,-99.99,,2013-03-27 05:52:00,
2013-03-27 02:01:00,40.0,31.0,-100.00,West,280,7.0,7.0,72,-99.99,,,-99.99,,2013-03-27 06:01:00,
2013-03-27 02:11:00,40.0,31.0,-100.00,WNW,290,7.0,11.0,69,-99.99,,,-99.99,,2013-03-27 06:11:00,
2013-03-27 02:21:00,40.0,31.0,-100.00,WNW,290,7.0,11.0,69,-99.99,,,-99.99,,2013-03-27 06:21:00,
2013-03-27 02:31:00,40.0,31.0,-100.00,WNW,290,7.0,11.0,69,-99.99,,,-99.99,,2013-03-27 06:31:00,
2013-03-27 02:41:00,40.0,28.0,-100.00,NW,310,13.0,16.0,61,-99.99,,,-99.99,,2013-03-27 06:41:00,
2013-03-27 02:51:00,40.0,28.0,-100.00,NW,310,13.0,16.0,61,-99.99,,,-99.99,,2013-03-27 06:51:00,
2013-03-27 03:01:00,40.0,28.0,-100.00,NW,310,13.0,16.0,61,-99.99,,,-99.99,,2013-03-27 07:01:00,
2013-03-27 03:11:00,40.0,28.0,-100.00,NW,310,13.0,16.0,62,-99.99,,,-99.99,,2013-03-27 07:11:00,
2013-03-27 03:21:00,40.0,28.0,-100.00,NW,310,13.0,16.0,62,-99.99,,,-99.99,,2013-03-27 07:21:00,
2013-03-27 03:31:00,40.0,28.0,-100.00,NW,310,13.0,16.0,62,-99.99,,,-99.99,,2013-03-27 07:31:00,
2013-03-27 03:41:00,40.0,28.0,-100.00,NW,310,13.0,16.0,62,-99.99,,,-99.99,,2013-03-27 07:41:00,
2013-03-27 03:53:00,40.0,27.0,-100.00,NW,310,13.0,16.0,60,-99.99,,,-99.99,,2013-03-27 07:53:00,
2013-03-27 04:02:00,40.0,27.0,-100.00,NW,310,13.0,16.0,60,-99.99,,,-99.99,,2013-03-27 08:02:00,
2013-03-27 04:11:00,40.0,27.0,-100.00,NW,310,13.0,16.0,60,-99.99,,,-99.99,,2013-03-27 08:11:00,
2013-03-27 04:21:00,39.0,26.0,-100.00,NW,310,13.0,16.0,59,-99.99,,,-99.99,,2013-03-27 08:21:00,
2013-03-27 04:31:00,39.0,26.0,-100.00,NW,310,13.0,16.0,59,-99.99,,,-99.99,,2013-03-27 08:31:00,
2013-03-27 04:42:00,39.0,26.0,-100.00,NW,310,13.0,16.0,59,-99.99,,,-99.99,,2013-03-27 08:42:00,
2013-03-27 04:51:00,39.0,27.0,-100.00,NW,310,13.0,16.0,61,-99.99,,,-99.99,,2013-03-27 08:51:00,
2013-03-27 05:01:00,39.0,27.0,-100.00,NW,310,13.0,16.0,61,-99.99,,,-99.99,,2013-03-27 09:01:00,
2013-03-27 05:21:00,38.0,27.0,-100.00,NW,320,11.0,13.0,62,-99.99,,,-99.99,,2013-03-27 09:21:00,
2013-03-27 05:32:00,38.0,27.0,-100.00,NW,320,11.0,13.0,62,-99.99,,,-99.99,,2013-03-27 09:32:00,
2013-03-27 05:42:00,38.0,27.0,-100.00,NW,320,11.0,13.0,62,-99.99,,,-99.99,,2013-03-27 09:42:00,
2013-03-27 05:52:00,38.0,26.0,-100.00,NW,320,11.0,13.0,61,-99.99,,,-99.99,,2013-03-27 09:52:00,
2013-03-27 06:02:00,38.0,26.0,-100.00,NW,320,11.0,13.0,61,-99.99,,,-99.99,,2013-03-27 10:02:00,
2013-03-27 06:12:00,38.0,26.0,-100.00,NW,320,11.0,13.0,61,-99.99,,,-99.99,,2013-03-27 10:12:00,
2013-03-27 06:22:00,38.0,26.0,-100.00,NW,320,11.0,13.0,61,-99.99,,,-99.99,,2013-03-27 10:22:00,
2013-03-27 06:31:00,38.0,26.0,-100.00,NW,320,11.0,13.0,61,-99.99,,,-99.99,,2013-03-27 10:31:00,
2013-03-27 06:41:00,38.0,26.0,-100.00,NW,310,13.0,16.0,61,-99.99,,,-99.99,,2013-03-27 10:41:00,
2013-03-27 06:52:00,38.0,26.0,-100.00,NW,310,13.0,16.0,61,-99.99,,,-99.99,,2013-03-27 10:52:00,
2013-03-27 07:02:00,38.0,26.0,-100.00,NW,310,13.0,16.0,61,-99.99,,,-99.99,,2013-03-27 11:02:00,
2013-03-27 07:11:00,38.0,26.0,-100.00,NW,310,13.0,16.0,60,-99.99,,,-99.99,,2013-03-27 11:11:00,
2013-03-27 07:21:00,38.0,26.0,-100.00,NW,310,13.0,16.0,60,-99.99,,,-99.99,,2013-03-27 11:21:00,
2013-03-27 07:31:00,38.0,26.0,-100.00,NW,310,13.0,16.0,60,-99.99,,,-99.99,,2013-03-27 11:31:00,
2013-03-27 07:42:00,38.0,26.0,-100.00,WNW,300,11.0,13.0,62,-99.99,,,-99.99,,2013-03-27 11:42:00,
2013-03-27 07:51:00,38.0,26.0,-100.00,WNW,300,11.0,13.0,62,-99.99,,,-99.99,,2013-03-27 11:51:00,
2013-03-27 08:01:00,38.0,26.0,-100.00,WNW,300,11.0,13.0,62,-99.99,,,-99.99,,2013-03-27 12:01:00,
2013-03-27 08:22:00,38.0,27.0,-100.00,NW,310,13.0,16.0,62,-99.99,,,-99.99,,2013-03-27 12:22:00,
2013-03-27 08:31:00,38.0,27.0,-100.00,NW,310,13.0,16.0,62,-99.99,,,-99.99,,2013-03-27 12:31:00,
2013-03-27 08:42:00,38.0,27.0,-100.00,NW,310,13.0,16.0,62,-99.99,,,-99.99,,2013-03-27 12:42:00,
2013-03-27 08:51:00,39.0,27.0,-100.00,NW,310,18.0,20.0,62,-99.99,,,-99.99,,2013-03-27 12:51:00,
2013-03-27 09:01:00,39.0,27.0,-100.00,NW,310,18.0,20.0,62,-99.99,,,-99.99,,2013-03-27 13:01:00,
2013-03-27 09:21:00,39.0,28.0,-100.00,WNW,300,16.0,18.0,63,-99.99,,,-99.99,,2013-03-27 13:21:00,
2013-03-27 09:32:00,39.0,28.0,-100.00,WNW,300,16.0,18.0,63,-99.99,,,-99.99,,2013-03-27 13:32:00,
2013-03-27 09:41:00,39.0,28.0,-100.00,WNW,300,16.0,18.0,63,-99.99,,,-99.99,,2013-03-27 13:41:00,
2013-03-27 09:52:00,40.0,29.0,-100.00,NW,320,13.0,16.0,65,-99.99,,,-99.99,,2013-03-27 13:52:00,
2013-03-27 10:01:00,40.0,29.0,-100.00,NW,320,13.0,16.0,65,-99.99,,,-99.99,,2013-03-27 14:01:00,
2013-03-27 10:21:00,41.0,29.0,-100.00,NW,310,11.0,16.0,63,-99.99,,,-99.99,,2013-03-27 14:21:00,
2013-03-27 10:31:00,41.0,29.0,-100.00,NW,310,11.0,16.0,63,-99.99,,,-99.99,,2013-03-27 14:31:00,
2013-03-27 10:41:00,41.0,30.0,-100.00,WNW,300,11.0,13.0,64,-99.99,,,-99.99,,2013-03-27 14:41:00,
2013-03-27 10:51:00,41.0,30.0,-100.00,WNW,300,11.0,13.0,64,-99.99,,,-99.99,,2013-03-27 14:51:00,
2013-03-27 11:01:00,41.0,30.0,-100.00,WNW,300,11.0,13.0,64,-99.99,,,-99.99,,2013-03-27 15:01:00,
2013-03-27 11:32:00,42.0,29.0,-100.00,WNW,290,11.0,16.0,61,-99.99,,,-99.99,,2013-03-27 15:32:00,
2013-03-27 11:42:00,42.0,29.0,-100.00,WNW,290,11.0,16.0,61,-99.99,,,-99.99,,2013-03-27 15:42:00,
2013-03-27 11:52:00,42.0,30.0,-100.00,WNW,290,9.0,11.0,61,-99.99,,,-99.99,,2013-03-27 15:52:00,
2013-03-27 12:02:00,42.0,30.0,-100.00,WNW,290,9.0,11.0,61,-99.99,,,-99.99,,2013-03-27 16:02:00,
2013-03-27 12:12:00,43.0,29.0,-100.00,WNW,290,9.0,11.0,57,-99.99,,,-99.99,,2013-03-27 16:12:00,
2013-03-27 12:22:00,43.0,29.0,-100.00,WNW,290,9.0,11.0,57,-99.99,,,-99.99,,2013-03-27 16:22:00,
2013-03-27 12:32:00,43.0,29.0,-100.00,WNW,290,9.0,11.0,57,-99.99,,,-99.99,,2013-03-27 16:32:00,
2013-03-27 12:41:00,43.0,29.0,-100.00,WNW,290,9.0,11.0,57,-99.99,,,-99.99,,2013-03-27 16:41:00,
2013-03-27 12:52:00,44.0,29.0,-100.00,WNW,300,7.0,11.0,54,-99.99,,,-99.99,,2013-03-27 16:52:00,
2013-03-27 13:02:00,44.0,29.0,-100.00,WNW,300,7.0,11.0,54,-99.99,,,-99.99,,2013-03-27 17:02:00,
2013-03-27 13:22:00,45.0,27.0,-100.00,WNW,290,9.0,11.0,50,-99.99,,,-99.99,,2013-03-27 17:22:00,
2013-03-27 13:31:00,45.0,27.0,-100.00,WNW,290,9.0,11.0,50,-99.99,,,-99.99,,2013-03-27 17:31:00,
2013-03-27 13:44:00,45.0,27.0,-100.00,WNW,290,9.0,11.0,50,-99.99,,,-99.99,,2013-03-27 17:44:00,
2013-03-27 13:51:00,45.0,27.0,-100.00,WNW,290,9.0,13.0,49,-99.99,,,-99.99,,2013-03-27 17:51:00,
2013-03-27 14:11:00,46.0,27.0,-100.00,WNW,300,9.0,16.0,47,-99.99,,,-99.99,,2013-03-27 18:11:00,
2013-03-27 14:22:00,46.0,27.0,-100.00,WNW,300,9.0,16.0,47,-99.99,,,-99.99,,2013-03-27 18:22:00,
2013-03-27 14:31:00,46.0,27.0,-100.00,WNW,300,9.0,16.0,47,-99.99,,,-99.99,,2013-03-27 18:31:00,
2013-03-27 14:42:00,46.0,27.0,-100.00,WNW,300,9.0,16.0,47,-99.99,,,-99.99,,2013-03-27 18:42:00,
2013-03-27 14:51:00,46.0,27.0,-100.00,WNW,300,11.0,13.0,47,-99.99,,,-99.99,,2013-03-27 18:51:00,
2013-03-27 15:01:00,46.0,27.0,-100.00,WNW,300,11.0,13.0,47,-99.99,,,-99.99,,2013-03-27 19:01:00,
2013-03-27 15:11:00,47.0,24.0,-100.00,NW,310,11.0,20.0,40,-99.99,,,-99.99,,2013-03-27 19:11:00,
2013-03-27 15:21:00,47.0,24.0,-100.00,NW,310,11.0,20.0,40,-99.99,,,-99.99,,2013-03-27 19:21:00,
2013-03-27 15:31:00,47.0,24.0,-100.00,NW,310,11.0,20.0,40,-99.99,,,-99.99,,2013-03-27 19:31:00,
2013-03-27 15:42:00,47.0,24.0,-100.00,NW,310,11.0,20.0,40,-99.99,,,-99.99,,2013-03-27 19:42:00,
2013-03-27 15:51:00,47.0,26.0,-100.00,WNW,300,11.0,16.0,45,-99.99,,,-99.99,,2013-03-27 19:51:00,
2013-03-27 16:01:00,47.0,26.0,-100.00,WNW,300,11.0,16.0,45,-99.99,,,-99.99,,2013-03-27 20:01:00,
2013-03-27 16:21:00,47.0,26.0,-100.00,NW,320,20.0,29.0,44,-99.99,,,-99.99,,2013-03-27 20:21:00,
2013-03-27 16:31:00,47.0,26.0,-100.00,NW,320,20.0,29.0,44,-99.99,,,-99.99,,2013-03-27 20:31:00,
2013-03-27 16:42:00,47.0,26.0,-100.00,NW,320,20.0,29.0,44,-99.99,,,-99.99,,2013-03-27 20:42:00,
2013-03-27 16:51:00,45.0,29.0,-100.00,WNW,300,13.0,18.0,52,-99.99,,,-99.99,,2013-03-27 20:51:00,
2013-03-27 17:01:00,45.0,29.0,-100.00,WNW,300,13.0,18.0,52,-99.99,,,-99.99,,2013-03-27 21:01:00,
2013-03-27 17:11:00,47.0,28.0,-100.00,WNW,300,13.0,20.0,46,-99.99,,,-99.99,,2013-03-27 21:11:00,
2013-03-27 17:21:00,47.0,28.0,-100.00,WNW,300,13.0,20.0,46,-99.99,,,-99.99,,2013-03-27 21:21:00,
2013-03-27 17:31:00,47.0,28.0,-100.00,WNW,300,13.0,20.0,46,-99.99,,,-99.99,,2013-03-27 21:31:00,
2013-03-27 17:42:00,47.0,28.0,-100.00,WNW,300,13.0,20.0,46,-99.99,,,-99.99,,2013-03-27 21:42:00,
2013-03-27 17:52:00,46.0,29.0,-100.00,WNW,300,11.0,13.0,49,-99.99,,,-99.99,,2013-03-27 21:52:00,
2013-03-27 18:02:00,46.0,29.0,-100.00,WNW,300,11.0,13.0,49,-99.99,,,-99.99,,2013-03-27 22:02:00,
2013-03-27 18:12:00,46.0,29.0,-100.00,WNW,300,11.0,13.0,49,-99.99,,,-99.99,,2013-03-27 22:12:00,
2013-03-27 18:22:00,47.0,27.0,-100.00,WNW,300,16.0,18.0,46,-99.99,,,-99.99,,2013-03-27 22:22:00,
2013-03-27 18:32:00,47.0,27.0,-100.00,WNW,300,16.0,18.0,46,-99.99,,,-99.99,,2013-03-27 22:32:00,
2013-03-27 18:42:00,47.0,27.0,-100.00,WNW,300,16.0,18.0,46,-99.99,,,-99.99,,2013-03-27 22:42:00,
2013-03-27 18:52:00,47.0,28.0,-100.00,WNW,290,13.0,18.0,46,-99.99,,,-99.99,,2013-03-27 22:52:00,
2013-03-27 19:01:00,47.0,28.0,-100.00,WNW,290,13.0,18.0,46,-99.99,,,-99.99,,2013-03-27 23:01:00,
2013-03-27 19:11:00,47.0,28.0,-100.00,NW,310,18.0,25.0,48,-99.99,,,-99.99,,2013-03-27 23:11:00,
2013-03-27 19:21:00,47.0,28.0,-100.00,NW,310,18.0,25.0,48,-99.99,,,-99.99,,2013-03-27 23:21:00,
2013-03-27 19:31:00,47.0,28.0,-100.00,NW,310,18.0,25.0,48,-99.99,,,-99.99,,2013-03-27 23:31:00,
2013-03-27 19:42:00,45.0,29.0,-100.00,NW,320,11.0,16.0,52,-99.99,,,-99.99,,2013-03-27 23:42:00,
2013-03-27 19:51:00,45.0,29.0,-100.00,NW,320,11.0,16.0,52,-99.99,,,-99.99,,2013-03-27 23:51:00,
2013-03-27 20:01:00,45.0,29.0,-100.00,NW,320,11.0,16.0,52,-99.99,,,-99.99,,2013-03-28 00:01:00,
2013-03-27 20:11:00,45.0,30.0,-100.00,NW,320,9.0,9.0,54,-99.99,,,-99.99,,2013-03-28 00:11:00,
2013-03-27 20:21:00,45.0,30.0,-100.00,NW,320,9.0,9.0,54,-99.99,,,-99.99,,2013-03-28 00:21:00,
2013-03-27 20:31:00,45.0,30.0,-100.00,NW,320,9.0,9.0,54,-99.99,,,-99.99,,2013-03-28 00:31:00,
2013-03-27 20:41:00,45.0,30.0,-100.00,NW,320,9.0,9.0,54,-99.99,,,-99.99,,2013-03-28 00:41:00,
2013-03-27 20:51:00,45.0,29.0,-100.00,NW,310,9.0,11.0,53,-99.99,,,-99.99,,2013-03-28 00:51:00,
2013-03-27 21:01:00,45.0,29.0,-100.00,NW,310,9.0,11.0,53,-99.99,,,-99.99,,2013-03-28 01:01:00,
2013-03-27 21:11:00,45.0,30.0,-100.00,WNW,300,16.0,20.0,54,-99.99,,,-99.99,,2013-03-28 01:11:00,
2013-03-27 21:21:00,45.0,30.0,-100.00,WNW,300,16.0,20.0,54,-99.99,,,-99.99,,2013-03-28 01:21:00,
2013-03-27 21:31:00,45.0,30.0,-100.00,WNW,300,16.0,20.0,54,-99.99,,,-99.99,,2013-03-28 01:31:00,
2013-03-27 21:42:00,45.0,30.0,-100.00,WNW,300,16.0,20.0,54,-99.99,,,-99.99,,2013-03-28 01:42:00,
2013-03-27 21:52:00,44.0,30.0,-100.00,WNW,300,16.0,22.0,57,-99.99,,,-99.99,,2013-03-28 01:52:00,
2013-03-27 22:01:00,44.0,30.0,-100.00,WNW,300,16.0,22.0,57,-99.99,,,-99.99,,2013-03-28 02:01:00,
2013-03-27 22:21:00,44.0,30.0,-100.00,WNW,300,16.0,22.0,57,-99.99,,,-99.99,,2013-03-28 02:21:00,
2013-03-27 22:31:00,44.0,30.0,-100.00,WNW,300,16.0,22.0,57,-99.99,,,-99.99,,2013-03-28 02:31:00,
2013-03-27 22:41:00,44.0,30.0,-100.00,WNW,300,16.0,22.0,57,-99.99,,,-99.99,,2013-03-28 02:41:00,
2013-03-27 23:01:00,44.0,30.0,-100.00,WNW,300,18.0,22.0,57,-99.99,,,-99.99,,2013-03-28 03:01:00,
2013-03-27 23:11:00,43.0,30.0,-100.00,WNW,300,16.0,20.0,60,-99.99,,,-99.99,,2013-03-28 03:11:00,
2013-03-27 23:21:00,43.0,30.0,-100.00,WNW,300,16.0,20.0,60,-99.99,,,-99.99,,2013-03-28 03:21:00,
2013-03-27 23:32:00,43.0,30.0,-100.00,WNW,300,16.0,20.0,60,-99.99,,,-99.99,,2013-03-28 03:32:00,
2013-03-27 23:42:00,43.0,30.0,-100.00,WNW,300,16.0,20.0,60,-99.99,,,-99.99,,2013-03-28 03:42:00,